General Juan N Alvarez International Airport
MMAA : now visible

Airfield :











YOU CAN JOIN US ON...

 
LOGIN :

Register | Disclaimer

   EN    FR    IT 

 









Legend :    VFR   Marginal VFR   IFR   Intensive IFR   Very Intensive IFR
Visi :
Ceiling :
>= 8 km
>= 3000ft
5 to 8 km
1000 to 3000 ft
1500m to 5 km
500 to 1000 ft
800 to 1500m
200 to 500 ft
< 800m
< 200 ft
Symbols :   Thunderstorms  Fog  Heavy snow  Heavy precipitations  Wind > 20 kt






- Airport Elevation : 16 ft
- IATA code : ACA


MMAA - General Juan N Alvarez International

CURRENT METAR :
  • 081844Z 24004KT 5SM SCT300 32/21 A2986 RMK 8/002 HZ FU SE

EXPIRED METARs :
  • 081743Z 24005KT 5SM SCT300 30/18 A2990 RMK SLP116 57008 953 8/001 HZ
  • 081642Z 24006KT 5SM SCT300 30/21 A2992 RMK 8/001 HZ ISOL AC

TAF TAF MMAA
Valid from the 08 at 18:00 until the 10 at 00:00 UTC


081640Z 0818/0924 26010KT P6SM SCT030 TX32/0820Z TN23/0912Z
BECMG 0901/0902 00000KT
FM091700 26010KT P6SM SKC



MET'MAP, your aeronautical weather chart ! - Copyright ORBIFLY December 2007 - Disclaimer

ORBIFLY MET'MAP TEAM :

Programming & Development : Alexandra Zaïnal
Concept & original design : Baudouin d'Aumeries
Assistance for programming : Marc-Olivier Méhu
Technical & hardware support : Manuel Goepfert

Contact : metmap@orbifly.com




SOURCES & CREDITS :

   NOAA       Earth
Advisory